Urb Ana Maria, Puerto Rico
Current Conditions -  °F | °C
As of 1:50 PM on Saturday 22 Nov 2014 (Local Time) from TJBQ Reporting Station
Light Rain Light Rain  
Wind Chill: 75°   Ceiling: 1700
Heat Index: 75°   Visibility: 10mi
Dew Point: 73°   Wind: 15mph
Humidity: 94%   Direction: 90°E
Pressure: 29.99"   Gusts: NA
Location:  18.0849°N, 67.1633°W
Report Text: TJBQ 221750Z 09013KT 10SM -RA SCT010 BKN017 BKN038 24/23 A2999 RMK RWY08 ATIS U
Loading
Personal Weather Stations






























Interactive Weather Map New forecast layout! Learn more

10-Day Weather Forecast

Advertisements
Track Severe Weather on mobile